| time (UTC) | temp F | wind direction | speed MPH | gust MPH | rain 1hr in | rain 24hr in | rain mn in | humidity % | barometer mb |
| 20260509161544 | 39 | 291 | 0.0 | 0.0 | 0.00 | 0.00 | 0.00 | 92 | 1027.7 |
| 20260509160043 | 39 | 291 | 0.0 | 0.0 | 0.00 | 0.00 | 0.00 | 92 | 1027.8 |
| 20260509154547 | 39 | 291 | 0.0 | 0.0 | 0.00 | 0.00 | 0.00 | 92 | 1027.9 |
| 20260509153039 | 40 | 291 | 0.0 | 0.0 | 0.00 | 0.00 | 0.00 | 92 | 1027.9 |
| 20260509151542 | 40 | 291 | 0.0 | 0.0 | 0.00 | 0.00 | 0.00 | 92 | 1027.8 |
| 20260509150037 | 40 | 291 | 0.0 | 0.0 | 0.00 | 0.00 | 0.00 | 92 | 1027.8 |
| 20260509144544 | 40 | 291 | 0.0 | 0.0 | 0.00 | 0.00 | 0.00 | 92 | 1027.8 |
| 20260509143038 | 41 | 291 | 0.0 | 0.0 | 0.00 | 0.00 | 0.00 | 92 | 1027.8 |
| 20260509141537 | 41 | 291 | 0.0 | 0.0 | 0.00 | 0.00 | 0.00 | 92 | 1027.8 |
| 20260509140052 | 41 | 291 | 0.0 | 0.0 | 0.00 | 0.00 | 0.00 | 91 | 1027.8 |
| 20260509134530 | 41 | 291 | 0.0 | 0.0 | 0.00 | 0.00 | 0.00 | 91 | 1027.7 |
| 20260509133029 | 42 | 291 | 0.0 | 0.0 | 0.00 | 0.00 | 0.00 | 91 | 1027.7 |
| 20260509131536 | 42 | 291 | 0.0 | 0.0 | 0.00 | 0.00 | 0.00 | 91 | 1027.8 |
| 20260509130030 | 42 | 291 | 0.0 | 0.0 | 0.00 | 0.00 | 0.00 | 91 | 1027.9 |
| 20260509124533 | 43 | 291 | 0.0 | 0.0 | 0.00 | 0.00 | 0.00 | 91 | 1027.8 |
| 20260509123027 | 43 | 291 | 0.0 | 0.0 | 0.00 | 0.00 | 0.00 | 90 | 1027.7 |
| 20260509121531 | 43 | 291 | 0.0 | 0.0 | 0.00 | 0.00 | 0.00 | 90 | 1027.5 |
| 20260509120032 | 44 | 291 | 0.0 | 0.0 | 0.00 | 0.00 | 0.00 | 90 | 1027.7 |
| 20260509114526 | 44 | 291 | 0.0 | 0.0 | 0.00 | 0.00 | 0.00 | 89 | 1027.6 |
| 20260509113022 | 44 | 291 | 0.0 | 0.0 | 0.00 | 0.00 | 0.00 | 89 | 1027.8 |
| 20260509111521 | 45 | 291 | 0.0 | 0.0 | 0.00 | 0.00 | 0.00 | 89 | 1027.6 |
| 20260509110020 | 45 | 291 | 0.0 | 0.0 | 0.00 | 0.00 | 0.00 | 88 | 1027.4 |
| 20260509104519 | 46 | 291 | 0.0 | 0.0 | 0.00 | 0.00 | 0.00 | 87 | 1027.3 |
| 20260509103016 | 46 | 291 | 0.0 | 0.0 | 0.00 | 0.00 | 0.00 | 87 | 1027.1 |
| 20260509101515 | 47 | 291 | 0.0 | 0.0 | 0.00 | 0.00 | 0.00 | 86 | 1026.9 |
| 20260509100014 | 47 | 291 | 0.0 | 0.0 | 0.00 | 0.00 | 0.00 | 85 | 1026.9 |
| 20260509094514 | 48 | 291 | 0.0 | 0.0 | 0.00 | 0.00 | 0.00 | 84 | 1026.7 |
| 20260509093013 | 49 | 291 | 0.0 | 0.0 | 0.00 | 0.00 | 0.00 | 83 | 1026.7 |
| 20260509091513 | 49 | 291 | 0.0 | 0.0 | 0.00 | 0.00 | 0.00 | 82 | 1026.6 |
| 20260509090014 | 50 | 291 | 0.0 | 0.0 | 0.00 | 0.00 | 0.00 | 81 | 1026.4 |
| 20260509084515 | 51 | 291 | 0.0 | 0.0 | 0.00 | 0.00 | 0.00 | 79 | 1026.2 |
| 20260509083011 | 52 | 291 | 0.0 | 0.0 | 0.00 | 0.00 | 0.00 | 78 | 1026.0 |
| 20260509081511 | 53 | 291 | 0.0 | 0.0 | 0.00 | 0.00 | 0.00 | 76 | 1025.8 |
| 20260509080011 | 55 | 291 | 0.0 | 0.0 | 0.00 | 0.00 | 0.00 | 73 | 1025.4 |
| 20260509074512 | 56 | 291 | 0.0 | 0.0 | 0.00 | 0.00 | 0.00 | 70 | 1025.2 |
| 20260509071512 | 59 | 291 | 0.0 | 1.0 | 0.00 | 0.00 | 0.00 | 65 | 1024.9 |
| 20260509070009 | 61 | 291 | 0.0 | 4.0 | 0.00 | 0.00 | 0.00 | 62 | 1024.7 |
| 20260509064508 | 62 | 291 | 0.0 | 5.0 | 0.00 | 0.00 | 0.00 | 60 | 1024.5 |
| 20260509063007 | 63 | 292 | 0.0 | 5.0 | 0.00 | 0.00 | 0.00 | 58 | 1024.4 |
| 20260509061514 | 63 | 292 | 0.0 | 4.0 | 0.00 | 0.00 | 0.00 | 56 | 1024.4 |
| 20260509060011 | 63 | 291 | 0.0 | 3.0 | 0.00 | 0.00 | 0.00 | 57 | 1024.3 |
| 20260509054506 | 63 | 291 | 0.0 | 3.0 | 0.00 | 0.00 | 0.00 | 56 | 1024.3 |
| 20260509053005 | 63 | 291 | 0.0 | 3.0 | 0.00 | 0.00 | 0.00 | 55 | 1024.2 |
| 20260509051504 | 63 | 296 | 0.0 | 3.0 | 0.00 | 0.00 | 0.00 | 56 | 1024.3 |
| 20260509050100 | 62 | 297 | 2.0 | 5.0 | 0.00 | 0.00 | 0.00 | 57 | 1024.2 |
| 20260509050002 | 62 | 297 | 1.0 | 5.0 | 0.00 | 0.00 | 0.00 | 57 | 1024.2 |
| 20260509044558 | 62 | 295 | 0.0 | 3.0 | 0.00 | 0.00 | 0.00 | 57 | 1024.4 |
| 20260509044500 | 62 | 295 | 0.0 | 4.0 | 0.00 | 0.00 | 0.00 | 57 | 1024.3 |
| 20260509043107 | 62 | 296 | 0.0 | 3.0 | 0.00 | 0.00 | 0.00 | 57 | 1024.4 |
| 20260509041603 | 62 | 300 | 0.0 | 6.0 | 0.00 | 0.00 | 0.00 | 57 | 1024.5 |
| 20260509040104 | 62 | 304 | 2.0 | 5.0 | 0.00 | 0.00 | 0.00 | 57 | 1024.5 |
| 20260509034603 | 61 | 301 | 1.0 | 4.0 | 0.00 | 0.00 | 0.00 | 58 | 1024.5 |
| 20260509033049 | 61 | 321 | 1.0 | 6.0 | 0.00 | 0.00 | 0.00 | 60 | 1024.6 |
| 20260509031545 | 60 | 350 | 1.0 | 5.0 | 0.00 | 0.00 | 0.00 | 61 | 1024.7 |
| 20260509030043 | 59 | 342 | 1.0 | 6.0 | 0.00 | 0.00 | 0.00 | 64 | 1024.9 |
| 20260509024542 | 58 | 275 | 1.0 | 8.0 | 0.00 | 0.00 | 0.00 | 64 | 1025.1 |
| 20260509023039 | 58 | 275 | 0.0 | 8.0 | 0.00 | 0.00 | 0.00 | 65 | 1025.4 |
| 20260509021537 | 57 | 275 | 0.0 | 6.0 | 0.00 | 0.00 | 0.00 | 66 | 1025.6 |
| 20260509020040 | 57 | 294 | 1.0 | 4.0 | 0.00 | 0.00 | 0.00 | 66 | 1025.9 |
| 20260509014531 | 56 | 296 | 2.0 | 4.0 | 0.00 | 0.00 | 0.00 | 70 | 1026.1 |
| 20260509013034 | 54 | 304 | 0.0 | 5.0 | 0.00 | 0.00 | 0.00 | 73 | 1026.2 |
| 20260509011529 | 53 | 275 | 1.0 | 4.0 | 0.00 | 0.00 | 0.00 | 79 | 1026.3 |
| 20260509010036 | 51 | 271 | 1.0 | 4.0 | 0.00 | 0.00 | 0.00 | 83 | 1026.4 |
| 20260509004524 | 49 | 269 | 1.0 | 4.0 | 0.00 | 0.00 | 0.00 | 89 | 1026.7 |
| 20260509003015 | 48 | 340 | 0.0 | 4.0 | 0.00 | 0.00 | 0.00 | 94 | 1026.7 |
| 20260509001516 | 47 | 345 | 0.0 | 0.0 | 0.00 | 0.00 | 0.00 | 95 | 1026.9 |
| 20260509000015 | 45 | 344 | 0.0 | 3.0 | 0.00 | 0.00 | 0.00 | 95 | 1026.9 |
| 20260508234522 | 45 | 344 | 0.0 | 2.0 | 0.00 | 0.00 | 0.00 | 95 | 1026.9 |
| 20260508233015 | 44 | 355 | 0.0 | 0.0 | 0.00 | 0.00 | 0.00 | 95 | 1027.0 |
| 20260508231511 | 43 | 360 | 0.0 | 1.0 | 0.00 | 0.00 | 0.00 | 95 | 1026.9 |
| 20260508230016 | 43 | 360 | 0.0 | 0.0 | 0.00 | 0.00 | 0.00 | 95 | 1026.9 |
| 20260508224609 | 42 | 348 | 0.0 | 0.0 | 0.00 | 0.00 | 0.00 | 95 | 1026.8 |
| 20260508223006 | 42 | 348 | 0.0 | 2.0 | 0.00 | 0.00 | 0.00 | 95 | 1026.6 |
| 20260508221511 | 41 | 348 | 0.0 | 0.0 | 0.00 | 0.00 | 0.00 | 95 | 1026.5 |
| 20260508220100 | 41 | 348 | 0.0 | 0.0 | 0.00 | 0.00 | 0.00 | 94 | 1026.3 |
| 20260508220002 | 41 | 348 | 0.0 | 0.0 | 0.00 | 0.00 | 0.00 | 94 | 1026.3 |
| 20260508214606 | 41 | 348 | 0.0 | 0.0 | 0.00 | 0.00 | 0.00 | 94 | 1026.1 |
| 20260508214501 | 41 | 348 | 0.0 | 0.0 | 0.00 | 0.00 | 0.00 | 94 | 1026.1 |
| 20260508213057 | 41 | 348 | 0.0 | 0.0 | 0.00 | 0.00 | 0.00 | 94 | 1025.9 |
| 20260508211553 | 0 | 0.0 | 0.0 | 0.00 | 0.00 | 0.00 | 1025.8 | ||
| 20260508210049 | 0 | 0.0 | 0.0 | 0.00 | 0.00 | 0.00 | 1025.6 | ||
| 20260508204547 | 0 | 0.0 | 0.0 | 0.00 | 0.00 | 0.00 | 1025.3 | ||
| 20260508203039 | 0 | 0.0 | 0.0 | 0.00 | 0.00 | 0.00 | 1025.1 | ||
| 20260508201536 | 0 | 0.0 | 0.0 | 0.00 | 0.00 | 0.00 | 1024.8 | ||
| 20260508200043 | 0 | 0.0 | 0.0 | 0.00 | 0.00 | 0.00 | 1024.7 | ||
| 20260508194527 | 0 | 0.0 | 0.0 | 0.00 | 0.00 | 0.00 | 1024.5 | ||
| 20260508193022 | 0 | 0.0 | 0.0 | 0.00 | 0.00 | 0.00 | 1024.4 | ||
| 20260508191520 | 40 | 348 | 0.0 | 0.0 | 0.00 | 0.00 | 0.00 | 92 | 1024.2 |
| 20260508190018 | 40 | 348 | 0.0 | 0.0 | 0.00 | 0.00 | 0.00 | 92 | 1024.1 |
| 20260508184517 | 41 | 348 | 0.0 | 0.0 | 0.00 | 0.00 | 0.00 | 92 | 1024.1 |
| 20260508183013 | 42 | 348 | 0.0 | 0.0 | 0.00 | 0.00 | 0.00 | 92 | 1023.9 |
| 20260508181516 | 42 | 348 | 0.0 | 1.0 | 0.00 | 0.00 | 0.00 | 92 | 1023.9 |
| 20260508180010 | 43 | 348 | 0.0 | 0.0 | 0.00 | 0.00 | 0.00 | 92 | 1023.9 |
| 20260508174506 | 43 | 348 | 0.0 | 0.0 | 0.00 | 0.00 | 0.00 | 92 | 1023.8 |
| 20260508173004 | 44 | 348 | 0.0 | 0.0 | 0.00 | 0.00 | 0.00 | 91 | 1023.8 |
| 20260508171502 | 45 | 348 | 0.0 | 0.0 | 0.00 | 0.00 | 0.00 | 90 | 1023.8 |
| 20260508170201 | 45 | 348 | 0.0 | 0.0 | 0.00 | 0.00 | 0.00 | 90 | 1023.8 |
| 20260508164558 | 46 | 348 | 0.0 | 0.0 | 0.00 | 0.00 | 0.00 | 90 | 1023.8 |
| 20260508163054 | 46 | 34 | 0.0 | 0.0 | 0.00 | 0.00 | 0.00 | 88 | 1023.7 |